Richlands, VA

10:23 PM EDT on June 27, 2017 (GMT -0400)
Tazewell County

Weather History for KJFZ - January, 2012

Change the Weather History Date:

Wednesday, January 4, 2012

  Actual Average (KBLF) Record (KBLF)
Temperature  
Mean Temperature 22 °F -  
Max Temperature 35 °F 41 °F 69 °F (2007)
Min Temperature 10 °F 25 °F -1 °F (1981)
Degree Days  
Heating Degree Days 42    
Moisture  
Dew Point 7 °F    
Average Humidity 57    
Maximum Humidity 85    
Minimum Humidity 30    
Precipitation  
Precipitation 0.00 in - - ()
Sea Level Pressure  
Sea Level Pressure 30.12 in    
Wind  
Wind Speed 6 mph (SW)    
Max Wind Speed 12 mph    
Max Gust Speed 23 mph    
Visibility 10 miles    
Events      
Averages and records for this station are not official NWS values.
T = Trace of Precipitation, MM = Missing Value Source: NWS Daily Summary

Daily Weather History Graph

Daily Weather History Graph

Search for Another Location

Airport or City:

Trip Planner

Search our weather history database for the weather conditions in past years. The results will help you decide how hot, cold, wet, or windy it might be!

Date:

Astronomy

Jan. 04, 2012 Rise Set
Actual Time 7:40 AM EST 5:23 PM EST
Civil Twilight 7:12 AM EST 5:52 PM EST
Nautical Twilight 6:39 AM EST 6:24 PM EST
Astronomical Twilight 6:08 AM EST 6:55 PM EST
Moon 1:44 PM EST (1/4) 3:29 AM EST (1/4)
Length of Visible Light 10h 39m
Length of Day
9h 42m
Waxing Gibbous, 80% of the Moon is Illuminated
Jan 4
Waxing Gibbous
Jan 9
Full
Jan 16
Last Quarter
Jan 23
New
Jan 30
First Quarter

Hourly Weather History & Observations

Time (EST) Temp. Windchill Dew Point Humidity Pressure Visibility Wind Dir Wind Speed Gust Speed Precip Events Conditions
12:15 AM 12.2 °F 4.3 °F 8.6 °F 85% 30.17 in 10.0 mi SW 4.6 mph - N/A   Unknown
12:35 AM 12.2 °F 4.3 °F 8.6 °F 85% 30.16 in 10.0 mi SW 4.6 mph - N/A   Unknown
12:55 AM 12.2 °F 4.3 °F 8.6 °F 85% 30.17 in 10.0 mi SW 4.6 mph - N/A   Unknown
1:15 AM 12.2 °F 4.3 °F 8.6 °F 85% 30.15 in 10.0 mi SW 4.6 mph - N/A   Unknown
1:35 AM 12.2 °F 6.1 °F 8.6 °F 85% 30.17 in 10.0 mi WSW 3.5 mph - N/A   Unknown
1:55 AM 12.2 °F 1.7 °F 8.6 °F 85% 30.17 in 10.0 mi WSW 6.9 mph - N/A   Unknown
2:15 AM 14.0 °F 2.9 °F 8.6 °F 79% 30.16 in 10.0 mi WSW 8.1 mph - N/A   Unknown
2:35 AM 14.0 °F 5.1 °F 8.6 °F 79% 30.18 in 10.0 mi WSW 5.8 mph - N/A   Unknown
2:55 AM 12.2 °F 1.7 °F 8.6 °F 85% 30.18 in 10.0 mi WSW 6.9 mph - N/A   Unknown
3:15 AM 14.0 °F 2.9 °F 8.6 °F 79% 30.17 in 10.0 mi SW 8.1 mph - N/A   Unknown
3:35 AM 14.0 °F 5.1 °F 8.6 °F 79% 30.19 in 10.0 mi WSW 5.8 mph - N/A   Unknown
3:55 AM 14.0 °F 3.9 °F 6.8 °F 73% 30.19 in 10.0 mi WSW 6.9 mph - N/A   Unknown
4:15 AM 12.2 °F 1.7 °F 6.8 °F 79% 30.18 in 10.0 mi West 6.9 mph - N/A   Unknown
4:35 AM 12.2 °F 2.9 °F 6.8 °F 79% 30.20 in 10.0 mi WSW 5.8 mph - N/A   Unknown
4:55 AM 14.0 °F 5.1 °F 6.8 °F 73% 30.19 in 10.0 mi WSW 5.8 mph - N/A   Unknown
5:15 AM 12.2 °F 6.1 °F 6.8 °F 79% 30.21 in 10.0 mi SW 3.5 mph - N/A   Unknown
5:35 AM 12.2 °F 6.1 °F 6.8 °F 79% 30.21 in 10.0 mi South 3.5 mph - N/A   Unknown
5:55 AM 10.4 °F 4.0 °F 6.8 °F 85% 30.19 in 10.0 mi Variable 3.5 mph - N/A   Unknown
6:15 AM 12.2 °F 2.9 °F 6.8 °F 79% 30.20 in 10.0 mi Variable 5.8 mph - N/A   Unknown
6:35 AM 15.8 °F 10.2 °F 5.0 °F 62% 30.19 in 10.0 mi Variable 3.5 mph - N/A   Unknown
6:55 AM 12.2 °F 6.1 °F 5.0 °F 73% 30.19 in 10.0 mi Variable 3.5 mph - N/A   Unknown
7:15 AM 14.0 °F 3.9 °F 5.0 °F 67% 30.20 in 10.0 mi SW 6.9 mph - N/A   Unknown
7:35 AM 15.8 °F 7.2 °F 3.2 °F 58% 30.19 in 10.0 mi SW 5.8 mph - N/A   Unknown
7:55 AM 14.0 °F 5.1 °F 3.2 °F 62% 30.19 in 10.0 mi SW 5.8 mph - N/A   Unknown
8:15 AM 15.8 °F 5.1 °F 3.2 °F 58% 30.20 in 10.0 mi SW 8.1 mph - N/A   Unknown
8:35 AM 15.8 °F 10.2 °F 3.2 °F 58% 30.19 in 10.0 mi Variable 3.5 mph - N/A   Unknown
8:55 AM 17.6 °F 8.2 °F 1.4 °F 49% 30.18 in 10.0 mi Variable 6.9 mph - N/A   Unknown
9:15 AM 17.6 °F 9.3 °F 3.2 °F 53% 30.20 in 10.0 mi Variable 5.8 mph - N/A   Unknown
9:35 AM 19.4 °F 11.5 °F 3.2 °F 49% 30.19 in 10.0 mi Variable 5.8 mph - N/A   Unknown
9:55 AM 15.8 °F 10.2 °F 6.8 °F 68% 30.19 in 10.0 mi South 3.5 mph - N/A   Unknown
10:15 AM 19.4 °F - 6.8 °F 58% 30.18 in 10.0 mi Calm Calm - N/A   Unknown
10:35 AM 21.2 °F - 6.8 °F 54% 30.18 in 10.0 mi Calm Calm - N/A   Unknown
10:55 AM 21.2 °F 16.4 °F 6.8 °F 54% 30.17 in 10.0 mi Variable 3.5 mph - N/A   Unknown
11:15 AM 24.8 °F 19.1 °F 6.8 °F 46% 30.16 in 10.0 mi Variable 4.6 mph - N/A   Unknown
11:35 AM 26.6 °F 20.0 °F 6.8 °F 43% 30.15 in 10.0 mi Variable 5.8 mph - N/A   Unknown
11:55 AM 28.4 °F 19.7 °F 3.2 °F 34% 30.12 in 10.0 mi WSW 9.2 mph - N/A   Unknown
12:15 PM 28.4 °F 19.7 °F 1.4 °F 31% 30.10 in 10.0 mi SW 9.2 mph - N/A   Unknown
12:35 PM 28.4 °F 19.7 °F 3.2 °F 34% 30.08 in 10.0 mi SW 9.2 mph - N/A   Unknown
12:55 PM 30.2 °F 20.8 °F 3.2 °F 32% 30.05 in 10.0 mi SW 11.5 mph - N/A   Unknown
1:15 PM 30.2 °F 22.6 °F 3.2 °F 32% 30.04 in 10.0 mi SW 8.1 mph - N/A   Unknown
1:35 PM 32.0 °F 23.6 °F 3.2 °F 30% 30.03 in 10.0 mi SW 10.4 mph - N/A   Unknown
1:55 PM 33.8 °F 27.0 °F 6.8 °F 32% 30.02 in 10.0 mi SW 8.1 mph - N/A   Unknown
2:15 PM 32.0 °F 25.6 °F 3.2 °F 30% 30.01 in 10.0 mi SSW 6.9 mph - N/A   Unknown
2:35 PM 33.8 °F 29.6 °F 6.8 °F 32% 30.02 in 10.0 mi Variable 4.6 mph - N/A   Unknown
2:55 PM 35.6 °F 28.6 °F 8.6 °F 33% 30.02 in 10.0 mi SW 9.2 mph 23.0 mph N/A   Unknown
3:15 PM 33.8 °F 25.3 °F 8.6 °F 35% 30.01 in 10.0 mi SW 11.5 mph - N/A   Unknown
3:35 PM 32.0 °F 23.6 °F 10.4 °F 41% 30.01 in 10.0 mi SW 10.4 mph - N/A   Unknown
3:55 PM 32.0 °F 24.2 °F 10.4 °F 41% 30.01 in 10.0 mi WSW 9.2 mph - N/A   Unknown
4:15 PM 33.8 °F 27.7 °F 10.4 °F 38% 30.01 in 10.0 mi Variable 6.9 mph - N/A   Unknown
4:55 PM 33.8 °F 27.7 °F 10.4 °F 38% 30.01 in 10.0 mi SW 6.9 mph - N/A   Unknown
5:15 PM 32.0 °F 25.6 °F 10.4 °F 41% 30.01 in 10.0 mi Variable 6.9 mph - N/A   Unknown
5:35 PM 32.0 °F 24.2 °F 10.4 °F 41% 30.01 in 10.0 mi WSW 9.2 mph - N/A   Unknown
5:55 PM 32.0 °F 26.4 °F 10.4 °F 41% 30.01 in 10.0 mi SW 5.8 mph - N/A   Unknown
6:15 PM 32.0 °F 27.5 °F 10.4 °F 41% 30.01 in 10.0 mi Variable 4.6 mph - N/A   Unknown
6:35 PM 32.0 °F 24.8 °F 12.2 °F 44% 30.01 in 10.0 mi SW 8.1 mph - N/A   Unknown
6:55 PM 33.8 °F 26.4 °F 12.2 °F 41% 30.02 in 10.0 mi WSW 9.2 mph 18.4 mph N/A   Unknown
7:15 PM 32.0 °F 24.8 °F 12.2 °F 44% 30.02 in 10.0 mi WSW 8.1 mph - N/A   Unknown
7:35 PM 32.0 °F 25.6 °F 12.2 °F 44% 30.03 in 10.0 mi Variable 6.9 mph - N/A   Unknown
7:55 PM 32.0 °F 23.6 °F 12.2 °F 44% 30.03 in 10.0 mi WSW 10.4 mph - N/A   Unknown
8:15 PM 30.2 °F 22.6 °F 12.2 °F 47% 30.04 in 10.0 mi WSW 8.1 mph - N/A   Unknown
8:35 PM 30.2 °F 20.8 °F 12.2 °F 47% 30.04 in 10.0 mi WSW 11.5 mph - N/A   Unknown
8:55 PM 30.2 °F 24.3 °F 12.2 °F 47% 30.04 in 10.0 mi Variable 5.8 mph - N/A   Unknown
9:15 PM 30.2 °F 20.8 °F 12.2 °F 47% 30.05 in 10.0 mi SW 11.5 mph - N/A   Unknown
9:35 PM 30.2 °F 21.3 °F 12.2 °F 47% 30.04 in 10.0 mi WSW 10.4 mph 19.6 mph N/A   Unknown
10:15 PM 30.2 °F 21.9 °F 14.0 °F 51% 30.04 in 10.0 mi WSW 9.2 mph - N/A   Unknown
10:35 PM 30.2 °F 21.3 °F 14.0 °F 51% 30.03 in 10.0 mi WSW 10.4 mph - N/A   Unknown
10:55 PM 30.2 °F 19.8 °F 14.0 °F 51% 30.03 in 10.0 mi WSW 13.8 mph - N/A   Unknown
11:55 PM 30.2 °F 20.8 °F 15.8 °F 55% 30.03 in 10.0 mi WSW 11.5 mph - N/A   Unknown